aviador You're here:

KLKR Decoded Metar

LANCASTER in SC, USA
Report Time2018-01-19 18:35:00
UTC Time2018-01-19 19:00:54
Flight Rules vfr VFR
Wind180° at 04 kt
W.Decomp.*RWY 24: 2.4 kt HW 3.2 kt LCW
W.Rank180° ranks 13
Current wind is below 180° avg. (5.0)
Visibility9999 m
Phenomena:N/A
Clouds:N/A
Expected CloudBase > 7,200 ft AGL from Temp-Dew spread
CeilingNone
Temp11°C (ISA -3)
Dew Point-7°C (28% RH)
AAT6.8°C
QNH1023 hPa
Density Alt-154 ft
Elevation489 ft
Report Wrong Elevation
Raw Report
METAR KLKR 191835Z AUTO 18004KT 10SM CLR 11/M07 A3020 RMK AO2=

Extra information for KLKR:More info

Metar Taf Metar & Taf Last 4 Metars F.Rules Stats Wind Profile Meteogram Temp Stats Airport Information Weather charts Add Link Nearby VenuesMetar ALERT Operation Metar Decoded Social comments

AIRNAV info for KLKR